createdAt,value
2019-05-26T00:02:52.101Z,11.80
2019-05-26T00:07:59.579Z,11.71
2019-05-26T00:13:06.620Z,11.71
2019-05-26T00:18:15.883Z,11.67
2019-05-26T00:23:27.414Z,11.67
2019-05-26T00:28:34.611Z,11.62
2019-05-26T00:33:41.917Z,11.51
2019-05-26T00:38:48.712Z,11.51
2019-05-26T00:43:55.559Z,11.40
2019-05-26T00:49:02.574Z,11.40
2019-05-26T00:54:09.450Z,11.31
2019-05-26T00:59:16.453Z,11.31
2019-05-26T01:04:23.456Z,11.30
2019-05-26T01:09:30.563Z,11.26
2019-05-26T01:14:39.646Z,11.23
2019-05-26T01:25:18.632Z,11.15
2019-05-26T01:30:39.255Z,11.08
2019-05-26T01:35:47.312Z,11.08
2019-05-26T01:40:54.443Z,11.04
2019-05-26T01:46:00.307Z,10.99
2019-05-26T01:51:07.414Z,10.94
2019-05-26T01:56:13.308Z,10.90
2019-05-26T02:01:20.608Z,10.85
2019-05-26T02:06:28.259Z,10.66
2019-05-26T02:11:42.344Z,10.66
2019-05-26T02:16:50.445Z,10.52
2019-05-26T02:21:59.534Z,10.52
2019-05-26T02:32:41.389Z,10.40
2019-05-26T02:37:54.238Z,10.33
2019-05-26T02:43:01.896Z,10.30
2019-05-26T02:48:08.702Z,10.30
2019-05-26T02:53:24.575Z,10.26
2019-05-26T02:58:37.435Z,10.17
2019-05-26T03:03:45.417Z,10.17
2019-05-26T03:08:54.871Z,10.16
2019-05-26T03:14:07.297Z,10.16
2019-05-26T03:19:20.282Z,10.20
2019-05-26T03:24:33.457Z,10.24
2019-05-26T03:29:40.564Z,10.27
2019-05-26T03:34:48.262Z,10.30
2019-05-26T03:40:01.012Z,10.35
2019-05-26T03:45:09.365Z,10.40
2019-05-26T03:50:19.547Z,10.47
2019-05-26T03:55:29.716Z,10.53
2019-05-26T04:00:39.612Z,10.62
2019-05-26T04:05:48.334Z,10.89
2019-05-26T04:10:55.533Z,10.89
2019-05-26T04:16:02.606Z,11.05
2019-05-26T04:21:10.592Z,11.24
2019-05-26T04:26:17.572Z,11.25
2019-05-26T04:31:24.581Z,11.25
2019-05-26T04:36:33.505Z,11.47
2019-05-26T04:41:45.965Z,11.47
2019-05-26T04:46:59.034Z,11.74
2019-05-26T04:52:13.325Z,11.74
2019-05-26T04:57:20.411Z,11.81
2019-05-26T05:02:27.718Z,11.93
2019-05-26T05:07:34.589Z,12.09
2019-05-26T05:12:41.706Z,12.18
2019-05-26T05:17:48.584Z,12.18
2019-05-26T05:22:55.526Z,12.36
2019-05-26T05:28:02.560Z,12.36
2019-05-26T05:34:10.581Z,12.42
2019-05-26T05:39:17.428Z,12.89
2019-05-26T05:44:24.432Z,12.89
2019-05-26T05:49:31.473Z,13.23
2019-05-26T05:54:39.422Z,13.57
2019-05-26T05:59:47.595Z,13.96
2019-05-26T06:04:54.565Z,14.43
2019-05-26T06:10:01.444Z,14.60
2019-05-26T06:15:11.018Z,14.60
2019-05-26T06:20:19.058Z,14.83
2019-05-26T06:25:26.433Z,15.12
2019-05-26T06:30:35.029Z,15.36
2019-05-26T06:35:42.413Z,15.44
2019-05-26T06:40:49.509Z,15.50
2019-05-26T06:45:56.580Z,15.61
2019-05-26T06:51:03.516Z,15.87
2019-05-26T06:56:10.552Z,15.87
2019-05-26T07:01:17.692Z,16.05
2019-05-26T07:06:24.449Z,16.24
2019-05-26T07:11:31.789Z,16.24
2019-05-26T07:16:39.117Z,16.36
2019-05-26T07:21:47.592Z,16.42
2019-05-26T07:26:55.579Z,16.67
2019-05-26T07:32:02.508Z,17.03
2019-05-26T07:37:09.576Z,17.03
2019-05-26T07:42:16.555Z,17.29
2019-05-26T07:47:23.574Z,17.64
2019-05-26T07:52:31.450Z,17.87
2019-05-26T07:57:39.032Z,18.09
2019-05-26T08:02:46.436Z,18.51
2019-05-26T08:07:53.539Z,18.82
2019-05-26T08:13:00.435Z,19.07
2019-05-26T08:18:08.552Z,19.49
2019-05-26T08:23:15.670Z,19.49
2019-05-26T08:28:22.594Z,19.57
2019-05-26T08:33:29.865Z,20.07
2019-05-26T08:38:36.579Z,20.07
2019-05-26T08:43:43.456Z,20.40
2019-05-26T08:48:50.443Z,20.40
2019-05-26T08:53:57.571Z,20.63
2019-05-26T08:59:04.442Z,21.10
2019-05-26T09:04:11.431Z,21.67
2019-05-26T09:09:18.526Z,21.67
2019-05-26T09:14:25.650Z,21.97
2019-05-26T09:19:32.585Z,22.59
2019-05-26T09:24:39.505Z,22.78
2019-05-26T09:29:46.476Z,23.17
2019-05-26T09:34:53.467Z,23.17
2019-05-26T09:40:00.591Z,23.36
2019-05-26T09:45:10.940Z,23.40
2019-05-26T09:50:19.609Z,23.40
2019-05-26T09:55:26.592Z,23.39
2019-05-26T10:00:35.405Z,23.39
2019-05-26T10:05:45.057Z,23.91
2019-05-26T10:10:52.241Z,24.30
2019-05-26T10:15:59.615Z,23.92
2019-05-26T10:21:08.879Z,23.39
2019-05-26T10:26:15.446Z,23.61
2019-05-26T10:31:22.553Z,23.61
2019-05-26T10:36:29.647Z,24.10
2019-05-26T10:41:37.652Z,24.10
2019-05-26T10:46:44.633Z,24.25
2019-05-26T10:51:51.556Z,24.19
2019-05-26T10:56:58.441Z,24.19
2019-05-26T11:02:05.569Z,24.32
2019-05-26T11:07:12.444Z,24.30
2019-05-26T11:12:19.457Z,24.15
2019-05-26T11:17:26.473Z,24.12
2019-05-26T11:22:33.583Z,24.19
2019-05-26T11:27:40.459Z,24.05
2019-05-26T11:32:47.579Z,24.05
2019-05-26T11:37:54.477Z,24.81
2019-05-26T11:43:14.061Z,24.81
2019-05-26T11:48:10.423Z,24.79
2019-05-26T11:53:17.424Z,24.72
2019-05-26T11:58:24.431Z,24.56
2019-05-26T12:03:31.563Z,24.48
2019-05-26T12:08:38.577Z,25.03
2019-05-26T12:13:46.473Z,25.03
2019-05-26T12:18:53.551Z,25.82
2019-05-26T12:24:00.453Z,25.82
2019-05-26T12:29:07.566Z,25.48
2019-05-26T12:34:14.590Z,24.77
2019-05-26T12:39:21.569Z,25.05
2019-05-26T12:44:28.599Z,25.08
2019-05-26T12:49:35.572Z,25.33
2019-05-26T12:54:42.586Z,25.40
2019-05-26T12:59:49.552Z,25.12
2019-05-26T13:04:56.568Z,25.12
2019-05-26T13:10:03.558Z,24.86
2019-05-26T13:15:12.114Z,24.58
2019-05-26T13:20:19.934Z,24.82
2019-05-26T13:25:27.135Z,24.82
2019-05-26T13:30:35.571Z,25.02
2019-05-26T13:35:42.583Z,25.15
2019-05-26T13:40:49.474Z,25.08
2019-05-26T13:45:56.574Z,25.08
2019-05-26T13:51:03.583Z,25.11
2019-05-26T13:56:10.591Z,24.78
2019-05-26T14:01:17.575Z,24.82
2019-05-26T14:06:25.597Z,24.89
2019-05-26T14:11:32.620Z,24.84
2019-05-26T14:16:40.251Z,24.84
2019-05-26T14:21:47.448Z,24.84
2019-05-26T14:26:54.567Z,24.75
2019-05-26T14:32:01.571Z,24.54
2019-05-26T14:37:08.578Z,24.43
2019-05-26T14:42:18.338Z,24.32
2019-05-26T14:47:24.506Z,24.32
2019-05-26T14:52:31.645Z,24.28
2019-05-26T14:57:39.606Z,24.23
2019-05-26T15:03:08.626Z,24.19
2019-05-26T15:08:15.576Z,24.55
2019-05-26T15:13:22.602Z,24.74
2019-05-26T15:18:29.612Z,24.90
2019-05-26T15:23:36.487Z,25.27
2019-05-26T15:28:43.472Z,25.27
2019-05-26T15:33:50.575Z,25.51
2019-05-26T15:38:57.602Z,25.47
2019-05-26T15:44:04.590Z,25.23
2019-05-26T15:49:11.584Z,25.23
2019-05-26T15:54:18.574Z,24.54
2019-05-26T15:59:25.568Z,24.31
2019-05-26T16:04:32.461Z,24.31
2019-05-26T16:09:39.494Z,24.02
2019-05-26T16:14:46.607Z,23.88
2019-05-26T16:19:53.606Z,23.70
2019-05-26T16:25:00.595Z,23.59
2019-05-26T16:30:08.926Z,23.51
2019-05-26T16:35:16.494Z,23.51
2019-05-26T16:45:56.747Z,23.55
2019-05-26T16:51:03.602Z,23.86
2019-05-26T16:56:10.579Z,24.79
2019-05-26T17:01:17.554Z,24.79
2019-05-26T17:06:24.566Z,24.73
2019-05-26T17:11:31.577Z,24.60
2019-05-26T17:16:39.029Z,24.60
2019-05-26T17:21:46.617Z,24.46
2019-05-26T17:26:53.475Z,24.57
2019-05-26T17:32:00.561Z,24.57
2019-05-26T17:37:07.505Z,24.78
2019-05-26T17:42:14.557Z,25.09
2019-05-26T17:47:29.786Z,24.97
2019-05-26T17:52:30.509Z,24.73
2019-05-26T17:57:37.475Z,24.65
2019-05-26T18:02:44.575Z,24.38
2019-05-26T18:07:51.570Z,23.80
2019-05-26T18:12:58.453Z,23.80
2019-05-26T18:18:05.471Z,23.58
2019-05-26T18:24:58.352Z,23.24
2019-05-26T18:30:04.699Z,22.91
2019-05-26T18:35:12.258Z,22.82
2019-05-26T18:40:20.056Z,22.82
2019-05-26T18:45:27.421Z,22.68
2019-05-26T18:50:35.550Z,22.46
2019-05-26T18:55:42.571Z,22.22
2019-05-26T19:00:49.680Z,22.01
2019-05-26T19:05:56.625Z,21.85
2019-05-26T19:11:04.591Z,21.58
2019-05-26T19:16:11.483Z,21.43
2019-05-26T19:21:18.614Z,21.43
2019-05-26T19:26:25.610Z,21.34
2019-05-26T19:31:32.470Z,21.21
2019-05-26T19:36:39.464Z,21.10
2019-05-26T19:41:46.508Z,21.10
2019-05-26T19:46:53.479Z,21.01
2019-05-26T19:52:00.481Z,20.94
2019-05-26T19:57:07.590Z,20.88
2019-05-26T20:02:18.626Z,20.83
2019-05-26T20:07:23.592Z,20.83
2019-05-26T20:12:30.463Z,20.80
2019-05-26T20:17:37.478Z,20.79
2019-05-26T20:22:44.570Z,20.79
2019-05-26T20:27:51.488Z,20.83
2019-05-26T20:32:58.593Z,20.83
2019-05-26T20:38:05.587Z,20.81
2019-05-26T20:43:12.463Z,20.78
2019-05-26T20:48:19.459Z,20.78
2019-05-26T20:53:26.448Z,20.72
2019-05-26T20:58:33.434Z,20.61
2019-05-26T21:03:40.544Z,20.51
2019-05-26T21:08:47.570Z,20.44
2019-05-26T21:13:54.500Z,20.37
2019-05-26T21:19:01.466Z,20.37
2019-05-26T21:24:08.463Z,20.31
2019-05-26T21:29:15.534Z,20.30
2019-05-26T21:34:27.083Z,20.29
2019-05-26T21:39:34.572Z,20.27
2019-05-26T21:44:41.476Z,20.24
2019-05-26T21:49:48.435Z,20.25
2019-05-26T21:54:55.447Z,20.25
2019-05-26T22:00:04.244Z,20.21
2019-05-26T22:05:13.435Z,20.21
2019-05-26T22:10:20.612Z,20.16
2019-05-26T22:15:27.600Z,20.11
2019-05-26T22:20:36.446Z,20.11
2019-05-26T22:25:43.465Z,20.08
2019-05-26T22:30:51.740Z,20.07
2019-05-26T22:35:58.663Z,20.04
2019-05-26T22:41:05.460Z,20.00
2019-05-26T22:46:12.459Z,20.00
2019-05-26T22:54:27.567Z,19.86
2019-05-26T22:59:34.467Z,19.99
2019-05-26T23:04:41.580Z,19.99
2019-05-26T23:09:48.580Z,20.05
2019-05-26T23:16:02.600Z,19.99
2019-05-26T23:33:54.595Z,19.93
2019-05-26T23:41:05.628Z,19.96
2019-05-26T23:46:12.473Z,20.02
2019-05-26T23:51:19.545Z,20.02
2019-05-26T23:56:26.570Z,19.98
